sensor_id;sensor_type;location;lat;lon;timestamp;P1;durP1;ratioP1;P2;durP2;ratioP2
84660;SDS011;74889;52.240;20.902;2024-02-26T00:01:41;25.60;;;14.70;;
84660;SDS011;74889;52.240;20.902;2024-02-26T00:04:11;25.20;;;14.80;;
84660;SDS011;74889;52.240;20.902;2024-02-26T00:06:38;25.40;;;14.60;;
84660;SDS011;74889;52.240;20.902;2024-02-26T00:09:07;23.50;;;14.20;;
84660;SDS011;74889;52.240;20.902;2024-02-26T00:11:35;25.90;;;14.80;;
84660;SDS011;74889;52.240;20.902;2024-02-26T00:14:03;21.90;;;14.10;;
84660;SDS011;74889;52.240;20.902;2024-02-26T00:16:29;25.50;;;15.00;;
84660;SDS011;74889;52.240;20.902;2024-02-26T00:18:55;25.90;;;15.20;;
84660;SDS011;74889;52.240;20.902;2024-02-26T00:21:20;25.30;;;14.20;;
84660;SDS011;74889;52.240;20.902;2024-02-26T00:23:46;26.10;;;14.80;;
84660;SDS011;74889;52.240;20.902;2024-02-26T00:26:13;24.70;;;14.80;;
84660;SDS011;74889;52.240;20.902;2024-02-26T00:28:40;23.60;;;14.10;;
84660;SDS011;74889;52.240;20.902;2024-02-26T00:31:07;23.00;;;14.80;;
84660;SDS011;74889;52.240;20.902;2024-02-26T00:33:32;25.50;;;15.00;;
84660;SDS011;74889;52.240;20.902;2024-02-26T00:35:58;25.40;;;15.80;;
84660;SDS011;74889;52.240;20.902;2024-02-26T00:38:23;27.20;;;15.10;;
84660;SDS011;74889;52.240;20.902;2024-02-26T00:40:50;26.60;;;15.40;;
84660;SDS011;74889;52.240;20.902;2024-02-26T00:43:15;25.60;;;14.50;;
84660;SDS011;74889;52.240;20.902;2024-02-26T00:45:41;27.60;;;14.40;;
84660;SDS011;74889;52.240;20.902;2024-02-26T00:48:07;23.30;;;14.90;;
84660;SDS011;74889;52.240;20.902;2024-02-26T00:50:33;26.00;;;14.60;;
84660;SDS011;74889;52.240;20.902;2024-02-26T00:52:59;24.80;;;14.00;;
84660;SDS011;74889;52.240;20.902;2024-02-26T00:55:25;27.70;;;15.70;;
84660;SDS011;74889;52.240;20.902;2024-02-26T00:57:52;28.30;;;15.30;;
84660;SDS011;74889;52.240;20.902;2024-02-26T01:00:18;26.00;;;16.00;;
84660;SDS011;74889;52.240;20.902;2024-02-26T01:02:43;28.90;;;14.90;;
84660;SDS011;74889;52.240;20.902;2024-02-26T01:05:12;23.90;;;14.10;;
84660;SDS011;74889;52.240;20.902;2024-02-26T01:07:38;28.30;;;16.50;;
84660;SDS011;74889;52.240;20.902;2024-02-26T01:10:05;31.00;;;16.20;;
84660;SDS011;74889;52.240;20.902;2024-02-26T01:12:32;26.70;;;15.10;;
84660;SDS011;74889;52.240;20.902;2024-02-26T01:14:59;27.80;;;16.50;;
84660;SDS011;74889;52.240;20.902;2024-02-26T01:17:25;26.40;;;15.60;;
84660;SDS011;74889;52.240;20.902;2024-02-26T01:19:51;27.20;;;16.20;;
84660;SDS011;74889;52.240;20.902;2024-02-26T01:22:17;26.30;;;15.40;;
84660;SDS011;74889;52.240;20.902;2024-02-26T01:24:43;27.40;;;16.00;;
84660;SDS011;74889;52.240;20.902;2024-02-26T01:27:08;29.10;;;16.40;;
84660;SDS011;74889;52.240;20.902;2024-02-26T01:29:34;30.30;;;16.00;;
84660;SDS011;74889;52.240;20.902;2024-02-26T01:32:00;27.30;;;16.10;;
84660;SDS011;74889;52.240;20.902;2024-02-26T01:34:25;28.50;;;16.00;;
84660;SDS011;74889;52.240;20.902;2024-02-26T01:36:51;28.00;;;16.00;;
84660;SDS011;74889;52.240;20.902;2024-02-26T01:39:16;30.00;;;15.70;;
84660;SDS011;74889;52.240;20.902;2024-02-26T01:41:42;28.10;;;16.20;;
84660;SDS011;74889;52.240;20.902;2024-02-26T01:44:08;27.50;;;15.50;;
84660;SDS011;74889;52.240;20.902;2024-02-26T01:46:38;31.00;;;16.60;;
84660;SDS011;74889;52.240;20.902;2024-02-26T01:49:04;29.30;;;16.80;;
84660;SDS011;74889;52.240;20.902;2024-02-26T01:51:31;26.10;;;15.50;;
84660;SDS011;74889;52.240;20.902;2024-02-26T01:53:58;28.30;;;15.40;;
84660;SDS011;74889;52.240;20.902;2024-02-26T01:56:27;28.20;;;15.40;;
84660;SDS011;74889;52.240;20.902;2024-02-26T01:58:57;27.20;;;17.10;;
84660;SDS011;74889;52.240;20.902;2024-02-26T02:01:27;26.90;;;15.40;;
84660;SDS011;74889;52.240;20.902;2024-02-26T02:03:55;28.00;;;15.90;;
84660;SDS011;74889;52.240;20.902;2024-02-26T02:06:23;27.50;;;16.80;;
84660;SDS011;74889;52.240;20.902;2024-02-26T02:08:49;32.00;;;16.80;;
84660;SDS011;74889;52.240;20.902;2024-02-26T02:11:14;29.60;;;16.20;;
84660;SDS011;74889;52.240;20.902;2024-02-26T02:13:40;30.40;;;17.70;;
84660;SDS011;74889;52.240;20.902;2024-02-26T02:16:06;29.30;;;16.70;;
84660;SDS011;74889;52.240;20.902;2024-02-26T02:18:32;28.00;;;16.60;;
84660;SDS011;74889;52.240;20.902;2024-02-26T02:21:01;28.80;;;16.40;;
84660;SDS011;74889;52.240;20.902;2024-02-26T02:23:27;26.40;;;15.30;;
84660;SDS011;74889;52.240;20.902;2024-02-26T02:25:52;26.20;;;15.70;;
84660;SDS011;74889;52.240;20.902;2024-02-26T02:28:21;27.50;;;15.80;;
84660;SDS011;74889;52.240;20.902;2024-02-26T02:30:47;26.10;;;15.90;;
84660;SDS011;74889;52.240;20.902;2024-02-26T02:33:15;28.40;;;16.20;;
84660;SDS011;74889;52.240;20.902;2024-02-26T02:35:41;30.10;;;17.10;;
84660;SDS011;74889;52.240;20.902;2024-02-26T02:38:07;28.10;;;16.60;;
84660;SDS011;74889;52.240;20.902;2024-02-26T02:40:32;27.40;;;15.80;;
84660;SDS011;74889;52.240;20.902;2024-02-26T02:42:58;28.80;;;16.60;;
84660;SDS011;74889;52.240;20.902;2024-02-26T02:45:25;27.50;;;15.90;;
84660;SDS011;74889;52.240;20.902;2024-02-26T02:47:51;28.10;;;15.80;;
84660;SDS011;74889;52.240;20.902;2024-02-26T02:50:17;29.10;;;16.40;;
84660;SDS011;74889;52.240;20.902;2024-02-26T02:52:42;28.80;;;16.90;;
84660;SDS011;74889;52.240;20.902;2024-02-26T02:55:08;28.00;;;16.40;;
84660;SDS011;74889;52.240;20.902;2024-02-26T02:57:33;30.60;;;15.90;;
84660;SDS011;74889;52.240;20.902;2024-02-26T02:59:59;30.10;;;15.70;;
84660;SDS011;74889;52.240;20.902;2024-02-26T03:02:24;26.90;;;15.30;;
84660;SDS011;74889;52.240;20.902;2024-02-26T03:04:50;26.90;;;16.10;;
84660;SDS011;74889;52.240;20.902;2024-02-26T03:07:16;32.50;;;16.90;;
84660;SDS011;74889;52.240;20.902;2024-02-26T03:09:42;30.50;;;16.70;;
84660;SDS011;74889;52.240;20.902;2024-02-26T03:12:07;28.50;;;17.00;;
84660;SDS011;74889;52.240;20.902;2024-02-26T03:14:34;27.60;;;16.60;;
84660;SDS011;74889;52.240;20.902;2024-02-26T03:17:00;31.50;;;16.30;;
84660;SDS011;74889;52.240;20.902;2024-02-26T03:19:25;25.30;;;15.40;;
84660;SDS011;74889;52.240;20.902;2024-02-26T03:21:51;29.20;;;15.40;;
84660;SDS011;74889;52.240;20.902;2024-02-26T03:24:16;28.60;;;16.20;;
84660;SDS011;74889;52.240;20.902;2024-02-26T03:26:42;31.60;;;16.60;;
84660;SDS011;74889;52.240;20.902;2024-02-26T03:29:08;28.00;;;15.80;;
84660;SDS011;74889;52.240;20.902;2024-02-26T03:31:33;25.60;;;14.80;;
84660;SDS011;74889;52.240;20.902;2024-02-26T03:33:59;26.80;;;15.40;;
84660;SDS011;74889;52.240;20.902;2024-02-26T03:36:26;29.40;;;15.50;;
84660;SDS011;74889;52.240;20.902;2024-02-26T03:38:53;24.90;;;16.10;;
84660;SDS011;74889;52.240;20.902;2024-02-26T03:41:18;27.40;;;15.90;;
84660;SDS011;74889;52.240;20.902;2024-02-26T03:43:44;27.70;;;15.40;;
84660;SDS011;74889;52.240;20.902;2024-02-26T03:46:10;30.00;;;16.80;;
84660;SDS011;74889;52.240;20.902;2024-02-26T03:48:37;31.70;;;16.40;;
84660;SDS011;74889;52.240;20.902;2024-02-26T03:51:04;29.20;;;16.70;;
84660;SDS011;74889;52.240;20.902;2024-02-26T03:53:30;28.40;;;15.40;;
84660;SDS011;74889;52.240;20.902;2024-02-26T03:55:55;32.40;;;16.40;;
84660;SDS011;74889;52.240;20.902;2024-02-26T03:58:21;31.80;;;17.10;;
84660;SDS011;74889;52.240;20.902;2024-02-26T04:00:47;29.80;;;16.30;;
84660;SDS011;74889;52.240;20.902;2024-02-26T04:03:15;27.20;;;15.50;;
84660;SDS011;74889;52.240;20.902;2024-02-26T04:05:41;27.70;;;16.20;;
84660;SDS011;74889;52.240;20.902;2024-02-26T04:08:06;30.40;;;16.50;;
84660;SDS011;74889;52.240;20.902;2024-02-26T04:10:36;27.80;;;15.90;;
84660;SDS011;74889;52.240;20.902;2024-02-26T04:13:04;25.60;;;15.50;;
84660;SDS011;74889;52.240;20.902;2024-02-26T04:15:30;26.40;;;15.40;;
84660;SDS011;74889;52.240;20.902;2024-02-26T04:17:57;28.20;;;15.30;;
84660;SDS011;74889;52.240;20.902;2024-02-26T04:20:22;28.40;;;16.10;;
84660;SDS011;74889;52.240;20.902;2024-02-26T04:22:48;29.20;;;15.60;;
84660;SDS011;74889;52.240;20.902;2024-02-26T04:25:13;29.00;;;15.70;;
84660;SDS011;74889;52.240;20.902;2024-02-26T04:27:39;30.80;;;15.60;;
84660;SDS011;74889;52.240;20.902;2024-02-26T04:30:06;27.00;;;15.50;;
84660;SDS011;74889;52.240;20.902;2024-02-26T04:32:33;25.60;;;15.00;;
84660;SDS011;74889;52.240;20.902;2024-02-26T04:35:02;28.30;;;16.20;;
84660;SDS011;74889;52.240;20.902;2024-02-26T04:37:28;26.80;;;15.70;;
84660;SDS011;74889;52.240;20.902;2024-02-26T04:39:58;29.50;;;15.80;;
84660;SDS011;74889;52.240;20.902;2024-02-26T04:42:24;26.00;;;15.00;;
84660;SDS011;74889;52.240;20.902;2024-02-26T04:44:49;27.40;;;15.70;;
84660;SDS011;74889;52.240;20.902;2024-02-26T04:47:15;25.00;;;15.50;;
84660;SDS011;74889;52.240;20.902;2024-02-26T04:49:40;28.10;;;15.90;;
84660;SDS011;74889;52.240;20.902;2024-02-26T04:52:06;26.60;;;15.90;;
84660;SDS011;74889;52.240;20.902;2024-02-26T04:54:31;26.90;;;15.50;;
84660;SDS011;74889;52.240;20.902;2024-02-26T04:56:57;26.30;;;14.60;;
84660;SDS011;74889;52.240;20.902;2024-02-26T04:59:23;26.10;;;15.00;;
84660;SDS011;74889;52.240;20.902;2024-02-26T05:01:50;27.70;;;16.00;;
84660;SDS011;74889;52.240;20.902;2024-02-26T05:04:16;26.50;;;14.60;;
84660;SDS011;74889;52.240;20.902;2024-02-26T05:06:43;23.80;;;15.10;;
84660;SDS011;74889;52.240;20.902;2024-02-26T05:09:09;26.10;;;15.20;;
84660;SDS011;74889;52.240;20.902;2024-02-26T05:11:35;23.30;;;14.20;;
84660;SDS011;74889;52.240;20.902;2024-02-26T05:14:00;23.90;;;15.50;;
84660;SDS011;74889;52.240;20.902;2024-02-26T05:16:26;25.70;;;14.30;;
84660;SDS011;74889;52.240;20.902;2024-02-26T05:18:52;30.20;;;16.10;;
84660;SDS011;74889;52.240;20.902;2024-02-26T05:21:18;24.90;;;15.20;;
84660;SDS011;74889;52.240;20.902;2024-02-26T05:23:44;24.60;;;15.90;;
84660;SDS011;74889;52.240;20.902;2024-02-26T05:26:10;25.50;;;15.00;;
84660;SDS011;74889;52.240;20.902;2024-02-26T05:28:36;26.20;;;16.20;;
84660;SDS011;74889;52.240;20.902;2024-02-26T05:31:04;30.30;;;16.40;;
84660;SDS011;74889;52.240;20.902;2024-02-26T05:33:31;28.50;;;17.00;;
84660;SDS011;74889;52.240;20.902;2024-02-26T05:35:56;26.70;;;15.80;;
84660;SDS011;74889;52.240;20.902;2024-02-26T05:38:23;24.30;;;15.30;;
84660;SDS011;74889;52.240;20.902;2024-02-26T05:40:48;27.80;;;17.50;;
84660;SDS011;74889;52.240;20.902;2024-02-26T05:43:17;27.60;;;16.50;;
84660;SDS011;74889;52.240;20.902;2024-02-26T05:45:43;25.40;;;15.10;;
84660;SDS011;74889;52.240;20.902;2024-02-26T05:48:08;31.50;;;16.40;;
84660;SDS011;74889;52.240;20.902;2024-02-26T05:50:34;27.60;;;16.20;;
84660;SDS011;74889;52.240;20.902;2024-02-26T05:52:59;32.10;;;16.80;;
84660;SDS011;74889;52.240;20.902;2024-02-26T05:55:25;23.10;;;15.90;;
84660;SDS011;74889;52.240;20.902;2024-02-26T05:57:54;26.70;;;16.70;;
84660;SDS011;74889;52.240;20.902;2024-02-26T06:00:22;29.90;;;17.40;;
84660;SDS011;74889;52.240;20.902;2024-02-26T06:02:48;29.10;;;16.50;;
84660;SDS011;74889;52.240;20.902;2024-02-26T06:05:18;27.60;;;15.80;;
84660;SDS011;74889;52.240;20.902;2024-02-26T06:07:49;27.80;;;16.90;;
84660;SDS011;74889;52.240;20.902;2024-02-26T06:10:18;29.00;;;15.60;;
84660;SDS011;74889;52.240;20.902;2024-02-26T06:12:47;28.70;;;16.30;;
84660;SDS011;74889;52.240;20.902;2024-02-26T06:15:13;25.20;;;15.50;;
84660;SDS011;74889;52.240;20.902;2024-02-26T06:17:40;26.20;;;15.70;;
84660;SDS011;74889;52.240;20.902;2024-02-26T06:20:06;26.50;;;16.50;;
84660;SDS011;74889;52.240;20.902;2024-02-26T06:22:37;26.00;;;16.50;;
84660;SDS011;74889;52.240;20.902;2024-02-26T06:25:02;27.40;;;16.00;;
84660;SDS011;74889;52.240;20.902;2024-02-26T06:27:28;26.10;;;15.80;;
84660;SDS011;74889;52.240;20.902;2024-02-26T06:29:54;29.80;;;16.10;;
84660;SDS011;74889;52.240;20.902;2024-02-26T06:32:30;28.60;;;16.30;;
84660;SDS011;74889;52.240;20.902;2024-02-26T06:34:55;24.60;;;16.30;;
84660;SDS011;74889;52.240;20.902;2024-02-26T06:37:21;28.00;;;16.40;;
84660;SDS011;74889;52.240;20.902;2024-02-26T06:39:47;25.30;;;16.50;;
84660;SDS011;74889;52.240;20.902;2024-02-26T06:42:13;27.20;;;16.90;;
84660;SDS011;74889;52.240;20.902;2024-02-26T06:44:42;24.30;;;16.50;;
84660;SDS011;74889;52.240;20.902;2024-02-26T06:47:08;24.80;;;16.30;;
84660;SDS011;74889;52.240;20.902;2024-02-26T06:49:33;22.90;;;15.50;;
84660;SDS011;74889;52.240;20.902;2024-02-26T06:51:59;27.70;;;16.50;;
84660;SDS011;74889;52.240;20.902;2024-02-26T06:54:25;27.20;;;16.00;;
84660;SDS011;74889;52.240;20.902;2024-02-26T06:56:51;25.60;;;16.00;;
84660;SDS011;74889;52.240;20.902;2024-02-26T06:59:16;23.40;;;15.80;;
84660;SDS011;74889;52.240;20.902;2024-02-26T07:01:42;31.10;;;16.70;;
84660;SDS011;74889;52.240;20.902;2024-02-26T07:04:09;27.70;;;16.40;;
84660;SDS011;74889;52.240;20.902;2024-02-26T07:06:36;32.20;;;16.30;;
84660;SDS011;74889;52.240;20.902;2024-02-26T07:09:02;28.50;;;16.80;;
84660;SDS011;74889;52.240;20.902;2024-02-26T07:11:28;27.40;;;14.70;;
84660;SDS011;74889;52.240;20.902;2024-02-26T07:13:54;27.70;;;16.40;;
84660;SDS011;74889;52.240;20.902;2024-02-26T07:16:21;27.00;;;16.30;;
84660;SDS011;74889;52.240;20.902;2024-02-26T07:18:50;23.80;;;14.80;;
84660;SDS011;74889;52.240;20.902;2024-02-26T07:21:16;26.10;;;16.00;;
84660;SDS011;74889;52.240;20.902;2024-02-26T07:23:42;30.80;;;16.60;;
84660;SDS011;74889;52.240;20.902;2024-02-26T07:26:07;25.60;;;16.90;;
84660;SDS011;74889;52.240;20.902;2024-02-26T07:28:36;25.00;;;16.30;;
84660;SDS011;74889;52.240;20.902;2024-02-26T07:31:06;32.10;;;17.30;;
84660;SDS011;74889;52.240;20.902;2024-02-26T07:33:41;32.20;;;17.60;;
84660;SDS011;74889;52.240;20.902;2024-02-26T07:36:26;35.10;;;18.40;;
84660;SDS011;74889;52.240;20.902;2024-02-26T07:39:06;35.50;;;18.70;;
84660;SDS011;74889;52.240;20.902;2024-02-26T07:41:44;29.40;;;17.60;;
84660;SDS011;74889;52.240;20.902;2024-02-26T07:44:20;33.20;;;18.60;;
84660;SDS011;74889;52.240;20.902;2024-02-26T07:46:48;32.50;;;18.30;;
84660;SDS011;74889;52.240;20.902;2024-02-26T07:49:13;28.70;;;17.50;;
84660;SDS011;74889;52.240;20.902;2024-02-26T07:51:45;33.10;;;17.00;;
84660;SDS011;74889;52.240;20.902;2024-02-26T07:56:50;27.20;;;17.10;;
84660;SDS011;74889;52.240;20.902;2024-02-26T07:59:15;26.90;;;16.80;;
84660;SDS011;74889;52.240;20.902;2024-02-26T08:01:41;24.90;;;16.60;;
84660;SDS011;74889;52.240;20.902;2024-02-26T08:04:15;27.30;;;17.50;;
84660;SDS011;74889;52.240;20.902;2024-02-26T08:07:21;26.70;;;17.00;;
84660;SDS011;74889;52.240;20.902;2024-02-26T08:10:49;26.10;;;17.10;;
84660;SDS011;74889;52.240;20.902;2024-02-26T08:13:20;26.20;;;16.20;;
84660;SDS011;74889;52.240;20.902;2024-02-26T08:15:46;25.60;;;15.90;;
84660;SDS011;74889;52.240;20.902;2024-02-26T08:18:12;26.40;;;15.40;;
84660;SDS011;74889;52.240;20.902;2024-02-26T08:24:05;21.40;;;14.60;;
84660;SDS011;74889;52.240;20.902;2024-02-26T08:26:55;22.90;;;15.00;;
84660;SDS011;74889;52.240;20.902;2024-02-26T08:29:22;22.90;;;15.40;;
84660;SDS011;74889;52.240;20.902;2024-02-26T08:31:58;22.70;;;14.70;;
84660;SDS011;74889;52.240;20.902;2024-02-26T08:34:25;20.20;;;14.60;;
84660;SDS011;74889;52.240;20.902;2024-02-26T08:36:51;23.20;;;14.60;;
84660;SDS011;74889;52.240;20.902;2024-02-26T08:39:17;23.40;;;15.30;;
84660;SDS011;74889;52.240;20.902;2024-02-26T08:41:43;26.10;;;16.20;;
84660;SDS011;74889;52.240;20.902;2024-02-26T08:44:10;23.00;;;15.80;;
84660;SDS011;74889;52.240;20.902;2024-02-26T08:46:38;22.70;;;16.30;;
84660;SDS011;74889;52.240;20.902;2024-02-26T08:49:04;21.80;;;16.20;;
84660;SDS011;74889;52.240;20.902;2024-02-26T08:51:34;19.80;;;15.20;;
84660;SDS011;74889;52.240;20.902;2024-02-26T08:54:00;25.10;;;15.70;;
84660;SDS011;74889;52.240;20.902;2024-02-26T08:56:26;23.60;;;15.80;;
84660;SDS011;74889;52.240;20.902;2024-02-26T08:58:52;24.50;;;15.30;;
84660;SDS011;74889;52.240;20.902;2024-02-26T09:01:22;18.60;;;14.70;;
84660;SDS011;74889;52.240;20.902;2024-02-26T09:03:48;19.00;;;14.20;;
84660;SDS011;74889;52.240;20.902;2024-02-26T09:06:16;23.70;;;15.50;;
84660;SDS011;74889;52.240;20.902;2024-02-26T09:08:47;23.00;;;14.50;;
84660;SDS011;74889;52.240;20.902;2024-02-26T09:11:13;24.30;;;14.40;;
84660;SDS011;74889;52.240;20.902;2024-02-26T09:13:46;23.20;;;14.60;;
84660;SDS011;74889;52.240;20.902;2024-02-26T09:16:12;22.30;;;14.40;;
84660;SDS011;74889;52.240;20.902;2024-02-26T09:18:39;20.50;;;13.90;;
84660;SDS011;74889;52.240;20.902;2024-02-26T09:21:05;20.90;;;13.40;;
84660;SDS011;74889;52.240;20.902;2024-02-26T09:23:34;21.70;;;13.90;;
84660;SDS011;74889;52.240;20.902;2024-02-26T09:26:00;22.40;;;14.70;;
84660;SDS011;74889;52.240;20.902;2024-02-26T09:28:26;20.90;;;14.40;;
84660;SDS011;74889;52.240;20.902;2024-02-26T09:30:52;19.00;;;13.80;;
84660;SDS011;74889;52.240;20.902;2024-02-26T09:33:19;19.80;;;13.30;;
84660;SDS011;74889;52.240;20.902;2024-02-26T09:35:46;18.30;;;13.80;;
84660;SDS011;74889;52.240;20.902;2024-02-26T09:38:12;18.80;;;13.70;;
84660;SDS011;74889;52.240;20.902;2024-02-26T09:40:39;21.60;;;14.20;;
84660;SDS011;74889;52.240;20.902;2024-02-26T09:43:05;16.80;;;13.40;;
84660;SDS011;74889;52.240;20.902;2024-02-26T09:45:35;18.60;;;13.40;;
84660;SDS011;74889;52.240;20.902;2024-02-26T09:48:02;17.00;;;12.80;;
84660;SDS011;74889;52.240;20.902;2024-02-26T09:50:32;16.20;;;12.40;;
84660;SDS011;74889;52.240;20.902;2024-02-26T09:52:58;15.20;;;11.90;;
84660;SDS011;74889;52.240;20.902;2024-02-26T09:55:28;17.80;;;12.70;;
84660;SDS011;74889;52.240;20.902;2024-02-26T09:57:54;15.60;;;12.90;;
84660;SDS011;74889;52.240;20.902;2024-02-26T10:00:24;16.60;;;14.30;;
84660;SDS011;74889;52.240;20.902;2024-02-26T10:02:55;23.60;;;14.70;;
84660;SDS011;74889;52.240;20.902;2024-02-26T10:05:24;21.40;;;14.70;;
84660;SDS011;74889;52.240;20.902;2024-02-26T10:08:04;20.90;;;15.40;;
84660;SDS011;74889;52.240;20.902;2024-02-26T10:10:36;20.60;;;14.80;;
84660;SDS011;74889;52.240;20.902;2024-02-26T10:13:04;20.20;;;13.80;;
84660;SDS011;74889;52.240;20.902;2024-02-26T10:15:36;16.10;;;12.50;;
84660;SDS011;74889;52.240;20.902;2024-02-26T10:18:13;17.60;;;13.40;;
84660;SDS011;74889;52.240;20.902;2024-02-26T10:20:40;19.30;;;13.10;;
84660;SDS011;74889;52.240;20.902;2024-02-26T10:23:29;20.00;;;14.20;;
84660;SDS011;74889;52.240;20.902;2024-02-26T10:25:55;14.40;;;12.00;;
84660;SDS011;74889;52.240;20.902;2024-02-26T10:28:31;15.00;;;12.70;;
84660;SDS011;74889;52.240;20.902;2024-02-26T10:34:01;16.10;;;12.50;;
84660;SDS011;74889;52.240;20.902;2024-02-26T10:36:33;17.80;;;13.30;;
84660;SDS011;74889;52.240;20.902;2024-02-26T10:39:04;17.10;;;12.20;;
84660;SDS011;74889;52.240;20.902;2024-02-26T10:41:44;15.40;;;12.10;;
84660;SDS011;74889;52.240;20.902;2024-02-26T10:44:12;16.10;;;12.30;;
84660;SDS011;74889;52.240;20.902;2024-02-26T10:46:42;17.50;;;13.20;;
84660;SDS011;74889;52.240;20.902;2024-02-26T10:49:16;16.70;;;12.80;;
84660;SDS011;74889;52.240;20.902;2024-02-26T10:51:44;14.10;;;11.90;;
84660;SDS011;74889;52.240;20.902;2024-02-26T10:54:12;13.40;;;11.30;;
84660;SDS011;74889;52.240;20.902;2024-02-26T10:56:52;14.80;;;11.80;;
84660;SDS011;74889;52.240;20.902;2024-02-26T10:59:21;16.30;;;12.60;;
84660;SDS011;74889;52.240;20.902;2024-02-26T11:04:35;17.20;;;13.10;;
84660;SDS011;74889;52.240;20.902;2024-02-26T11:07:12;20.50;;;13.20;;
84660;SDS011;74889;52.240;20.902;2024-02-26T11:09:42;15.80;;;13.10;;
84660;SDS011;74889;52.240;20.902;2024-02-26T11:12:12;18.00;;;13.70;;
84660;SDS011;74889;52.240;20.902;2024-02-26T11:14:41;11.70;;;10.10;;
84660;SDS011;74889;52.240;20.902;2024-02-26T11:17:09;13.90;;;12.30;;
84660;SDS011;74889;52.240;20.902;2024-02-26T11:19:38;13.60;;;10.70;;
84660;SDS011;74889;52.240;20.902;2024-02-26T11:22:06;14.10;;;12.20;;
84660;SDS011;74889;52.240;20.902;2024-02-26T11:24:35;17.90;;;11.80;;
84660;SDS011;74889;52.240;20.902;2024-02-26T11:27:11;14.20;;;11.40;;
84660;SDS011;74889;52.240;20.902;2024-02-26T11:29:46;16.10;;;11.10;;
84660;SDS011;74889;52.240;20.902;2024-02-26T11:32:15;11.80;;;9.70;;
84660;SDS011;74889;52.240;20.902;2024-02-26T11:34:42;14.40;;;10.30;;
84660;SDS011;74889;52.240;20.902;2024-02-26T11:37:10;11.20;;;10.00;;
84660;SDS011;74889;52.240;20.902;2024-02-26T11:39:41;13.50;;;9.60;;
84660;SDS011;74889;52.240;20.902;2024-02-26T11:42:13;13.70;;;10.20;;
84660;SDS011;74889;52.240;20.902;2024-02-26T11:44:44;11.70;;;9.40;;
84660;SDS011;74889;52.240;20.902;2024-02-26T11:47:28;10.20;;;9.10;;
84660;SDS011;74889;52.240;20.902;2024-02-26T11:49:54;12.70;;;8.60;;
84660;SDS011;74889;52.240;20.902;2024-02-26T11:52:27;12.80;;;8.20;;
84660;SDS011;74889;52.240;20.902;2024-02-26T11:54:53;10.50;;;8.60;;
84660;SDS011;74889;52.240;20.902;2024-02-26T11:57:30;15.00;;;8.80;;
84660;SDS011;74889;52.240;20.902;2024-02-26T12:02:52;8.90;;;8.00;;
84660;SDS011;74889;52.240;20.902;2024-02-26T12:05:23;12.10;;;7.70;;
84660;SDS011;74889;52.240;20.902;2024-02-26T12:07:55;11.30;;;8.00;;
84660;SDS011;74889;52.240;20.902;2024-02-26T12:10:33;8.70;;;7.60;;
84660;SDS011;74889;52.240;20.902;2024-02-26T12:13:11;8.40;;;6.80;;
84660;SDS011;74889;52.240;20.902;2024-02-26T12:15:41;11.10;;;7.50;;
84660;SDS011;74889;52.240;20.902;2024-02-26T12:18:23;10.00;;;7.50;;
84660;SDS011;74889;52.240;20.902;2024-02-26T12:21:02;8.30;;;7.20;;
84660;SDS011;74889;52.240;20.902;2024-02-26T12:23:30;9.50;;;7.00;;
84660;SDS011;74889;52.240;20.902;2024-02-26T12:25:59;9.00;;;7.50;;
84660;SDS011;74889;52.240;20.902;2024-02-26T12:28:34;9.40;;;7.30;;
84660;SDS011;74889;52.240;20.902;2024-02-26T12:31:34;9.30;;;7.20;;
84660;SDS011;74889;52.240;20.902;2024-02-26T12:34:14;8.20;;;6.90;;
84660;SDS011;74889;52.240;20.902;2024-02-26T12:36:42;7.70;;;6.40;;
84660;SDS011;74889;52.240;20.902;2024-02-26T12:39:08;7.10;;;6.20;;
84660;SDS011;74889;52.240;20.902;2024-02-26T12:41:45;9.90;;;5.80;;
84660;SDS011;74889;52.240;20.902;2024-02-26T12:44:18;9.90;;;5.90;;
84660;SDS011;74889;52.240;20.902;2024-02-26T12:46:49;7.10;;;5.50;;
84660;SDS011;74889;52.240;20.902;2024-02-26T12:49:15;7.10;;;5.80;;
84660;SDS011;74889;52.240;20.902;2024-02-26T12:51:44;12.50;;;5.80;;
84660;SDS011;74889;52.240;20.902;2024-02-26T12:54:13;7.80;;;5.10;;
84660;SDS011;74889;52.240;20.902;2024-02-26T12:56:46;8.50;;;5.10;;
84660;SDS011;74889;52.240;20.902;2024-02-26T12:59:12;6.90;;;4.50;;
84660;SDS011;74889;52.240;20.902;2024-02-26T13:01:39;5.60;;;4.40;;
84660;SDS011;74889;52.240;20.902;2024-02-26T13:04:32;18.00;;;5.30;;
84660;SDS011;74889;52.240;20.902;2024-02-26T13:07:15;6.40;;;4.90;;
84660;SDS011;74889;52.240;20.902;2024-02-26T13:09:42;7.00;;;4.90;;
84660;SDS011;74889;52.240;20.902;2024-02-26T13:12:26;9.20;;;5.70;;
84660;SDS011;74889;52.240;20.902;2024-02-26T13:14:58;9.20;;;5.00;;
84660;SDS011;74889;52.240;20.902;2024-02-26T13:17:38;5.60;;;4.50;;
84660;SDS011;74889;52.240;20.902;2024-02-26T13:20:04;8.10;;;4.90;;
84660;SDS011;74889;52.240;20.902;2024-02-26T13:22:31;5.80;;;4.60;;
84660;SDS011;74889;52.240;20.902;2024-02-26T13:24:59;9.20;;;4.00;;
84660;SDS011;74889;52.240;20.902;2024-02-26T13:27:25;8.70;;;4.20;;
84660;SDS011;74889;52.240;20.902;2024-02-26T13:32:37;5.70;;;4.40;;
84660;SDS011;74889;52.240;20.902;2024-02-26T13:35:13;10.30;;;4.00;;
84660;SDS011;74889;52.240;20.902;2024-02-26T13:37:39;7.00;;;4.30;;
84660;SDS011;74889;52.240;20.902;2024-02-26T13:40:07;5.50;;;3.50;;
84660;SDS011;74889;52.240;20.902;2024-02-26T13:42:35;5.90;;;3.30;;
84660;SDS011;74889;52.240;20.902;2024-02-26T13:45:02;7.50;;;3.80;;
84660;SDS011;74889;52.240;20.902;2024-02-26T13:47:34;7.90;;;3.50;;
84660;SDS011;74889;52.240;20.902;2024-02-26T13:50:02;4.30;;;2.80;;
84660;SDS011;74889;52.240;20.902;2024-02-26T13:52:27;3.90;;;2.70;;
84660;SDS011;74889;52.240;20.902;2024-02-26T13:54:53;4.20;;;2.30;;
84660;SDS011;74889;52.240;20.902;2024-02-26T13:57:19;5.30;;;2.60;;
84660;SDS011;74889;52.240;20.902;2024-02-26T13:59:48;3.80;;;2.40;;
84660;SDS011;74889;52.240;20.902;2024-02-26T14:02:15;3.50;;;2.40;;
84660;SDS011;74889;52.240;20.902;2024-02-26T14:04:47;10.20;;;2.60;;
84660;SDS011;74889;52.240;20.902;2024-02-26T14:10:00;3.70;;;2.50;;
84660;SDS011;74889;52.240;20.902;2024-02-26T14:12:26;3.70;;;2.60;;
84660;SDS011;74889;52.240;20.902;2024-02-26T14:14:53;3.10;;;1.90;;
84660;SDS011;74889;52.240;20.902;2024-02-26T14:17:23;2.90;;;2.40;;
84660;SDS011;74889;52.240;20.902;2024-02-26T14:19:48;5.40;;;2.30;;
84660;SDS011;74889;52.240;20.902;2024-02-26T14:22:15;5.90;;;2.80;;
84660;SDS011;74889;52.240;20.902;2024-02-26T14:24:44;3.00;;;2.10;;
84660;SDS011;74889;52.240;20.902;2024-02-26T14:27:12;5.10;;;2.30;;
84660;SDS011;74889;52.240;20.902;2024-02-26T14:29:44;5.70;;;2.30;;
84660;SDS011;74889;52.240;20.902;2024-02-26T14:32:10;3.70;;;2.50;;
84660;SDS011;74889;52.240;20.902;2024-02-26T14:34:36;4.00;;;2.10;;
84660;SDS011;74889;52.240;20.902;2024-02-26T14:37:02;6.30;;;2.50;;
84660;SDS011;74889;52.240;20.902;2024-02-26T14:39:29;7.00;;;2.60;;
84660;SDS011;74889;52.240;20.902;2024-02-26T14:41:57;3.00;;;2.20;;